createdAt,value
2019-04-03T00:00:58.608Z,11.19
2019-04-03T00:01:58.591Z,11.20
2019-04-03T00:02:58.618Z,11.11
2019-04-03T00:03:58.565Z,11.20
2019-04-03T00:04:58.559Z,11.19
2019-04-03T00:05:58.548Z,11.19
2019-04-03T00:06:58.536Z,11.19
2019-04-03T00:07:58.523Z,11.16
2019-04-03T00:08:58.528Z,11.16
2019-04-03T00:09:58.506Z,11.19
2019-04-03T00:10:58.490Z,11.09
2019-04-03T00:11:58.602Z,11.06
2019-04-03T00:12:58.477Z,11.12
2019-04-03T00:13:58.482Z,11.08
2019-04-03T00:14:58.458Z,11.05
2019-04-03T00:15:58.443Z,11.03
2019-04-03T00:16:58.436Z,11.05
2019-04-03T00:17:58.418Z,11.13
2019-04-03T00:18:58.405Z,11.08
2019-04-03T00:19:58.412Z,11.11
2019-04-03T00:20:58.389Z,11.12
2019-04-03T00:21:58.408Z,11.08
2019-04-03T00:22:58.457Z,11.12
2019-04-03T00:24:06.275Z,11.13
2019-04-03T00:24:58.346Z,11.17
2019-04-03T00:25:58.339Z,11.20
2019-04-03T00:26:58.319Z,11.21
2019-04-03T00:27:58.316Z,11.20
2019-04-03T00:28:58.304Z,11.20
2019-04-03T00:29:58.287Z,11.19
2019-04-03T00:30:58.276Z,11.03
2019-04-03T00:31:58.275Z,11.19
2019-04-03T00:32:58.268Z,11.11
2019-04-03T00:33:58.276Z,11.20
2019-04-03T00:34:58.343Z,11.19
2019-04-03T00:35:58.227Z,11.20
2019-04-03T00:36:58.211Z,11.06
2019-04-03T00:37:58.201Z,11.19
2019-04-03T00:38:58.200Z,11.06
2019-04-03T00:39:58.195Z,11.09
2019-04-03T00:40:58.186Z,11.08
2019-04-03T00:41:58.164Z,11.03
2019-04-03T00:42:58.182Z,11.09
2019-04-03T00:43:58.145Z,11.11
2019-04-03T00:44:58.130Z,11.06
2019-04-03T00:45:58.130Z,11.16
2019-04-03T00:46:58.105Z,11.17
2019-04-03T00:47:58.099Z,11.23
2019-04-03T00:48:58.194Z,11.19
2019-04-03T00:49:58.082Z,11.19
2019-04-03T00:50:58.071Z,11.19
2019-04-03T00:51:58.137Z,11.19
2019-04-03T00:52:58.081Z,11.27
2019-04-03T00:53:58.212Z,11.23
2019-04-03T00:54:58.029Z,11.20
2019-04-03T00:55:58.026Z,11.16
2019-04-03T00:56:58.003Z,11.26
2019-04-03T00:57:58.105Z,11.24
2019-04-03T00:58:57.984Z,11.16
2019-04-03T00:59:57.972Z,11.19
2019-04-03T01:00:58.040Z,11.08
2019-04-03T01:01:57.954Z,11.09
2019-04-03T01:02:58.999Z,11.08
2019-04-03T01:03:58.824Z,11.19
2019-04-03T01:04:58.758Z,11.11
2019-04-03T01:05:58.359Z,11.06
2019-04-03T01:06:58.714Z,11.08
2019-04-03T01:07:59.891Z,11.08
2019-04-03T01:08:59.388Z,11.13
2019-04-03T01:09:59.579Z,11.08
2019-04-03T01:10:58.750Z,11.11
2019-04-03T01:11:58.795Z,11.09
2019-04-03T01:12:57.837Z,11.06
2019-04-03T01:13:57.819Z,11.06
2019-04-03T01:14:57.818Z,11.06
2019-04-03T01:15:57.797Z,11.16
2019-04-03T01:16:57.791Z,11.11
2019-04-03T01:17:57.790Z,11.01
2019-04-03T01:18:57.769Z,11.02
2019-04-03T01:19:57.984Z,11.05
2019-04-03T01:20:57.756Z,11.09
2019-04-03T01:21:57.738Z,11.02
2019-04-03T01:22:57.729Z,11.01
2019-04-03T01:23:57.724Z,10.95
2019-04-03T01:24:57.703Z,11.08
2019-04-03T01:25:57.698Z,11.11
2019-04-03T01:26:57.804Z,11.01
2019-04-03T01:27:57.677Z,10.99
2019-04-03T01:28:57.665Z,11.05
2019-04-03T01:29:57.664Z,10.99
2019-04-03T01:30:57.640Z,10.91
2019-04-03T01:31:57.633Z,11.05
2019-04-03T01:32:57.615Z,10.93
2019-04-03T01:33:57.727Z,10.98
2019-04-03T01:34:57.617Z,10.95
2019-04-03T01:35:57.587Z,11.03
2019-04-03T01:36:57.574Z,10.99
2019-04-03T01:37:57.569Z,10.95
2019-04-03T01:38:57.559Z,10.94
2019-04-03T01:39:57.605Z,10.95
2019-04-03T01:40:57.545Z,10.95
2019-04-03T01:41:57.531Z,11.01
2019-04-03T01:42:57.519Z,11.01
2019-04-03T01:43:57.505Z,11.01
2019-04-03T01:44:57.493Z,10.98
2019-04-03T01:45:57.505Z,10.94
2019-04-03T01:46:58.217Z,10.93
2019-04-03T01:47:58.439Z,11.01
2019-04-03T01:48:58.578Z,10.86
2019-04-03T01:49:58.562Z,10.91
2019-04-03T01:50:59.194Z,10.87
2019-04-03T01:51:57.415Z,10.91
2019-04-03T01:52:57.417Z,10.87
2019-04-03T01:53:57.399Z,10.94
2019-04-03T01:54:57.385Z,10.94
2019-04-03T01:55:57.385Z,10.93
2019-04-03T01:56:57.372Z,10.87
2019-04-03T01:57:57.356Z,10.83
2019-04-03T01:58:57.345Z,10.91
2019-04-03T01:59:57.383Z,10.91
2019-04-03T02:00:57.324Z,10.86
2019-04-03T02:01:57.420Z,10.90
2019-04-03T02:02:57.304Z,10.81
2019-04-03T02:03:57.293Z,10.86
2019-04-03T02:04:57.331Z,10.78
2019-04-03T02:05:57.283Z,10.91
2019-04-03T02:06:57.269Z,10.87
2019-04-03T02:07:57.268Z,10.76
2019-04-03T02:08:57.249Z,10.81
2019-04-03T02:09:57.234Z,10.81
2019-04-03T02:10:57.214Z,10.81
2019-04-03T02:11:57.393Z,10.88
2019-04-03T02:12:57.194Z,10.87
2019-04-03T02:13:57.183Z,10.83
2019-04-03T02:14:57.172Z,10.88
2019-04-03T02:15:57.256Z,10.83
2019-04-03T02:16:57.155Z,10.81
2019-04-03T02:17:57.152Z,10.78
2019-04-03T02:18:57.134Z,10.80
2019-04-03T02:19:57.123Z,10.81
2019-04-03T02:20:57.798Z,10.76
2019-04-03T02:21:58.561Z,10.81
2019-04-03T02:22:59.515Z,10.72
2019-04-03T02:23:57.075Z,10.72
2019-04-03T02:24:57.065Z,10.70
2019-04-03T02:25:57.061Z,10.70
2019-04-03T02:26:57.126Z,10.63
2019-04-03T02:27:57.059Z,10.65
2019-04-03T02:28:57.027Z,10.62
2019-04-03T02:29:57.016Z,10.63
2019-04-03T02:30:57.013Z,10.66
2019-04-03T02:31:57.073Z,10.60
2019-04-03T02:32:57.511Z,10.65
2019-04-03T02:33:56.985Z,10.57
2019-04-03T02:34:56.959Z,10.72
2019-04-03T02:35:56.962Z,10.60
2019-04-03T02:36:56.945Z,10.47
2019-04-03T02:37:56.937Z,10.42
2019-04-03T02:38:56.931Z,10.60
2019-04-03T02:40:00.091Z,10.51
2019-04-03T02:40:56.962Z,10.52
2019-04-03T02:41:56.889Z,10.60
2019-04-03T02:42:56.882Z,10.49
2019-04-03T02:43:56.887Z,10.55
2019-04-03T02:44:56.876Z,10.58
2019-04-03T02:45:57.398Z,10.55
2019-04-03T02:46:59.429Z,10.52
2019-04-03T02:47:56.822Z,10.42
2019-04-03T02:48:56.831Z,10.44
2019-04-03T02:49:56.850Z,10.47
2019-04-03T02:50:56.790Z,10.34
2019-04-03T02:51:56.780Z,10.35
2019-04-03T02:52:58.700Z,10.34
2019-04-03T02:53:56.765Z,10.32
2019-04-03T02:54:56.749Z,10.31
2019-04-03T02:55:56.768Z,10.25
2019-04-03T02:56:56.728Z,10.28
2019-04-03T02:57:56.721Z,10.29
2019-04-03T02:58:56.711Z,10.32
2019-04-03T02:59:58.679Z,10.29
2019-04-03T03:00:56.897Z,10.34
2019-04-03T03:01:56.722Z,10.28
2019-04-03T03:02:56.663Z,10.34
2019-04-03T03:03:56.659Z,10.14
2019-04-03T03:04:56.952Z,10.20
2019-04-03T03:05:59.302Z,10.25
2019-04-03T03:06:56.621Z,10.20
2019-04-03T03:07:56.634Z,10.25
2019-04-03T03:08:56.601Z,10.18
2019-04-03T03:09:56.595Z,10.14
2019-04-03T03:10:56.604Z,10.17
2019-04-03T03:11:57.161Z,10.10
2019-04-03T03:12:59.860Z,10.17
2019-04-03T03:13:56.547Z,10.09
2019-04-03T03:14:56.535Z,10.14
2019-04-03T03:15:56.525Z,10.11
2019-04-03T03:16:56.532Z,10.10
2019-04-03T03:17:56.509Z,10.04
2019-04-03T03:18:59.901Z,10.02
2019-04-03T03:19:56.486Z,10.13
2019-04-03T03:20:56.470Z,10.02
2019-04-03T03:21:56.471Z,9.96
2019-04-03T03:22:56.469Z,9.99
2019-04-03T03:23:57.254Z,9.96
2019-04-03T03:24:59.718Z,10.04
2019-04-03T03:25:56.422Z,9.98
2019-04-03T03:26:56.407Z,10.02
2019-04-03T03:27:56.411Z,9.99
2019-04-03T03:28:56.781Z,9.91
2019-04-03T03:29:58.553Z,9.89
2019-04-03T03:31:02.038Z,9.92
2019-04-03T03:32:10.026Z,9.92
2019-04-03T03:33:22.740Z,9.95
2019-04-03T03:34:02.996Z,10.02
2019-04-03T03:35:10.721Z,9.98
2019-04-03T03:35:57.870Z,10.06
2019-04-03T03:37:00.124Z,10.01
2019-04-03T03:37:57.294Z,9.91
2019-04-03T03:38:56.331Z,9.89
2019-04-03T03:39:56.274Z,9.89
2019-04-03T03:40:56.278Z,9.92
2019-04-03T03:41:58.138Z,9.83
2019-04-03T03:42:56.235Z,9.91
2019-04-03T03:43:56.270Z,9.86
2019-04-03T03:44:56.440Z,9.92
2019-04-03T03:45:56.211Z,9.89
2019-04-03T03:46:59.824Z,9.95
2019-04-03T03:47:56.197Z,9.86
2019-04-03T03:48:56.284Z,9.81
2019-04-03T03:49:56.175Z,9.93
2019-04-03T03:50:57.952Z,10.01
2019-04-03T03:51:56.149Z,9.98
2019-04-03T03:52:56.214Z,9.93
2019-04-03T03:53:56.124Z,9.98
2019-04-03T03:54:56.129Z,9.98
2019-04-03T03:55:58.432Z,9.96
2019-04-03T03:56:56.094Z,10.01
2019-04-03T03:57:56.331Z,9.89
2019-04-03T03:58:56.070Z,9.99
2019-04-03T03:59:56.068Z,10.01
2019-04-03T04:00:59.517Z,10.02
2019-04-03T04:01:56.193Z,10.01
2019-04-03T04:02:56.334Z,9.93
2019-04-03T04:03:56.015Z,9.88
2019-04-03T04:04:56.013Z,9.88
2019-04-03T04:05:56.829Z,9.81
2019-04-03T04:06:55.978Z,9.85
2019-04-03T04:07:55.971Z,9.81
2019-04-03T04:08:55.961Z,9.93
2019-04-03T04:09:56.236Z,9.89
2019-04-03T04:10:59.495Z,9.92
2019-04-03T04:11:55.930Z,9.81
2019-04-03T04:12:55.919Z,9.91
2019-04-03T04:13:55.907Z,9.80
2019-04-03T04:14:57.159Z,9.68
2019-04-03T04:15:56.265Z,9.77
2019-04-03T04:16:55.882Z,9.71
2019-04-03T04:17:55.950Z,9.75
2019-04-03T04:18:57.538Z,9.68
2019-04-03T04:19:55.852Z,9.73
2019-04-03T04:20:55.970Z,9.70
2019-04-03T04:21:55.822Z,9.68
2019-04-03T04:22:56.127Z,9.67
2019-04-03T04:23:56.989Z,9.73
2019-04-03T04:24:57.144Z,9.77
2019-04-03T04:25:55.789Z,9.67
2019-04-03T04:26:55.775Z,9.65
2019-04-03T04:27:55.753Z,9.77
2019-04-03T04:28:55.784Z,9.67
2019-04-03T04:29:55.839Z,9.68
2019-04-03T04:30:55.730Z,9.73
2019-04-03T04:31:55.721Z,9.67
2019-04-03T04:32:55.698Z,9.71
2019-04-03T04:33:55.689Z,9.71
2019-04-03T04:34:55.757Z,9.71
2019-04-03T04:35:55.851Z,9.80
2019-04-03T04:36:56.126Z,9.68
2019-04-03T04:37:56.609Z,9.80
2019-04-03T04:38:55.810Z,9.70
2019-04-03T04:39:55.823Z,9.67
2019-04-03T04:40:55.697Z,9.63
2019-04-03T04:41:55.659Z,9.59
2019-04-03T04:42:55.595Z,9.60
2019-04-03T04:43:55.581Z,9.50
2019-04-03T04:44:55.724Z,9.52
2019-04-03T04:45:55.563Z,9.49
2019-04-03T04:46:55.561Z,9.45
2019-04-03T04:47:55.574Z,9.38
2019-04-03T04:48:55.527Z,9.45
2019-04-03T04:49:55.520Z,9.49
2019-04-03T04:50:55.553Z,9.45
2019-04-03T04:51:57.009Z,9.37
2019-04-03T04:52:56.716Z,9.48
2019-04-03T04:53:55.598Z,9.53
2019-04-03T04:54:55.470Z,9.55
2019-04-03T04:55:55.492Z,9.60
2019-04-03T04:56:55.442Z,9.53
2019-04-03T04:57:55.445Z,9.52
2019-04-03T04:58:55.427Z,9.55
2019-04-03T04:59:55.449Z,9.59
2019-04-03T05:00:55.568Z,9.59
2019-04-03T05:01:55.431Z,9.58
2019-04-03T05:02:55.607Z,9.55
2019-04-03T05:03:55.372Z,9.60
2019-04-03T05:04:56.184Z,9.60
2019-04-03T05:05:57.369Z,9.65
2019-04-03T05:06:55.341Z,9.60
2019-04-03T05:07:55.341Z,9.58
2019-04-03T05:08:55.315Z,9.67
2019-04-03T05:09:55.304Z,9.62
2019-04-03T05:10:55.297Z,9.56
2019-04-03T05:11:55.289Z,9.56
2019-04-03T05:12:55.302Z,9.70
2019-04-03T05:13:55.541Z,9.65
2019-04-03T05:14:55.540Z,9.62
2019-04-03T05:15:55.241Z,9.68
2019-04-03T05:16:55.890Z,9.60
2019-04-03T05:17:55.804Z,9.60
2019-04-03T05:18:55.214Z,9.67
2019-04-03T05:19:55.211Z,9.62
2019-04-03T05:20:55.383Z,9.67
2019-04-03T05:21:55.173Z,9.65
2019-04-03T05:22:55.727Z,9.71
2019-04-03T05:23:56.022Z,9.68
2019-04-03T05:24:55.375Z,9.77
2019-04-03T05:25:55.140Z,9.77
2019-04-03T05:26:55.122Z,9.77
2019-04-03T05:27:55.110Z,9.74
2019-04-03T05:28:57.607Z,9.67
2019-04-03T05:29:55.088Z,9.62
2019-04-03T05:30:55.077Z,9.58
2019-04-03T05:31:55.093Z,9.62
2019-04-03T05:32:55.059Z,9.62
2019-04-03T05:33:55.045Z,9.63
2019-04-03T05:34:55.044Z,9.65
2019-04-03T05:35:55.090Z,9.67
2019-04-03T05:36:55.022Z,9.62
2019-04-03T05:37:55.004Z,9.52
2019-04-03T05:38:55.101Z,9.50
2019-04-03T05:39:55.823Z,9.55
2019-04-03T05:40:56.495Z,9.53
2019-04-03T05:41:54.971Z,9.48
2019-04-03T05:42:54.995Z,9.55
2019-04-03T05:43:54.938Z,9.58
2019-04-03T05:44:54.942Z,9.55
2019-04-03T05:45:54.925Z,9.59
2019-04-03T05:46:54.906Z,9.62
2019-04-03T05:47:54.901Z,9.67
2019-04-03T05:48:54.884Z,9.70
2019-04-03T05:49:56.083Z,9.74
2019-04-03T05:50:57.643Z,9.55
2019-04-03T05:51:54.858Z,9.50
2019-04-03T05:52:54.931Z,9.60
2019-04-03T05:53:54.840Z,9.58
2019-04-03T05:54:54.824Z,9.58
2019-04-03T05:55:55.137Z,9.60
2019-04-03T05:56:54.810Z,9.70
2019-04-03T05:57:54.801Z,9.63
2019-04-03T05:58:57.197Z,9.74
2019-04-03T06:00:00.596Z,9.71
2019-04-03T06:01:04.420Z,9.67
2019-04-03T06:01:55.749Z,9.77
2019-04-03T06:02:57.185Z,9.70
2019-04-03T06:03:54.725Z,9.73
2019-04-03T06:04:54.741Z,9.68
2019-04-03T06:05:57.353Z,9.74
2019-04-03T06:06:54.724Z,9.83
2019-04-03T06:07:54.856Z,9.83
2019-04-03T06:08:56.467Z,9.86
2019-04-03T06:09:58.331Z,9.73
2019-04-03T06:10:54.655Z,9.68
2019-04-03T06:11:54.825Z,9.75
2019-04-03T06:12:54.694Z,9.85
2019-04-03T06:13:54.624Z,9.92
2019-04-03T06:14:54.613Z,9.93
2019-04-03T06:15:54.874Z,9.98
2019-04-03T06:16:56.183Z,9.96
2019-04-03T06:17:55.739Z,10.06
2019-04-03T06:18:54.565Z,10.10
2019-04-03T06:19:54.555Z,10.20
2019-04-03T06:20:54.551Z,10.17
2019-04-03T06:21:54.614Z,10.32
2019-04-03T06:22:54.538Z,10.44
2019-04-03T06:23:54.512Z,10.38
2019-04-03T06:24:56.436Z,10.44
2019-04-03T06:25:54.496Z,10.49
2019-04-03T06:26:54.486Z,10.54
2019-04-03T06:27:54.481Z,10.57
2019-04-03T06:28:54.471Z,10.58
2019-04-03T06:29:55.068Z,10.46
2019-04-03T06:30:56.613Z,10.54
2019-04-03T06:31:55.918Z,10.60
2019-04-03T06:32:55.399Z,10.58
2019-04-03T06:33:54.408Z,10.58
2019-04-03T06:34:54.397Z,10.58
2019-04-03T06:35:54.386Z,10.54
2019-04-03T06:36:54.587Z,10.63
2019-04-03T06:37:54.372Z,10.73
2019-04-03T06:38:56.081Z,10.86
2019-04-03T06:39:54.343Z,10.94
2019-04-03T06:40:54.328Z,10.94
2019-04-03T06:41:54.665Z,10.99
2019-04-03T06:42:54.319Z,11.01
2019-04-03T06:43:54.664Z,11.19
2019-04-03T06:44:54.292Z,11.16
2019-04-03T06:45:56.970Z,11.20
2019-04-03T06:46:55.021Z,11.23
2019-04-03T06:47:54.465Z,11.45
2019-04-03T06:48:55.693Z,11.51
2019-04-03T06:49:54.249Z,11.54
2019-04-03T06:50:54.225Z,11.67
2019-04-03T06:51:54.371Z,11.69
2019-04-03T06:52:54.205Z,11.69
2019-04-03T06:53:54.193Z,11.78
2019-04-03T06:54:54.207Z,11.70
2019-04-03T06:55:54.277Z,11.77
2019-04-03T06:56:54.217Z,11.84
2019-04-03T06:57:54.203Z,11.97
2019-04-03T06:58:54.142Z,11.96
2019-04-03T06:59:54.123Z,11.98
2019-04-03T07:00:55.040Z,12.11
2019-04-03T07:01:54.109Z,12.12
2019-04-03T07:02:54.287Z,12.11
2019-04-03T07:03:54.096Z,12.11
2019-04-03T07:04:54.076Z,12.03
2019-04-03T07:05:54.319Z,12.07
2019-04-03T07:06:56.269Z,12.08
2019-04-03T07:07:54.044Z,12.12
2019-04-03T07:08:54.037Z,12.22
2019-04-03T07:09:54.022Z,12.49
2019-04-03T07:10:55.561Z,12.56
2019-04-03T07:11:54.007Z,12.69
2019-04-03T07:12:53.998Z,12.67
2019-04-03T07:13:54.473Z,12.80
2019-04-03T07:14:53.971Z,12.79
2019-04-03T07:15:55.956Z,12.63
2019-04-03T07:16:53.973Z,12.73
2019-04-03T07:17:53.936Z,12.84
2019-04-03T07:18:53.924Z,12.85
2019-04-03T07:19:54.215Z,12.91
2019-04-03T07:20:53.979Z,12.81
2019-04-03T07:21:55.225Z,12.87
2019-04-03T07:22:54.140Z,12.88
2019-04-03T07:23:53.875Z,12.94
2019-04-03T07:24:53.862Z,12.81
2019-04-03T07:25:53.852Z,12.94
2019-04-03T07:26:53.894Z,12.91
2019-04-03T07:27:53.924Z,12.88
2019-04-03T07:28:53.817Z,12.89
2019-04-03T07:29:53.818Z,12.89
2019-04-03T07:30:53.983Z,13.06
2019-04-03T07:31:55.172Z,13.22
2019-04-03T07:32:57.042Z,13.21
2019-04-03T07:33:53.998Z,13.31
2019-04-03T07:34:53.750Z,13.35
2019-04-03T07:35:53.755Z,13.28
2019-04-03T07:36:53.732Z,13.21
2019-04-03T07:37:53.721Z,13.21
2019-04-03T07:38:53.721Z,13.13
2019-04-03T07:39:53.704Z,13.13
2019-04-03T07:40:54.042Z,13.19
2019-04-03T07:41:54.803Z,13.27
2019-04-03T07:42:55.377Z,13.44
2019-04-03T07:43:53.667Z,13.57
2019-04-03T07:44:53.678Z,13.68
2019-04-03T07:45:53.635Z,13.68
2019-04-03T07:46:55.519Z,13.79
2019-04-03T07:47:53.614Z,13.94
2019-04-03T07:48:53.616Z,13.93
2019-04-03T07:49:53.596Z,14.17
2019-04-03T07:50:53.576Z,14.26
2019-04-03T07:51:53.565Z,14.49
2019-04-03T07:52:53.558Z,14.69
2019-04-03T07:53:53.552Z,14.75
2019-04-03T07:54:56.438Z,15.03
2019-04-03T07:55:55.120Z,15.19
2019-04-03T07:56:56.426Z,15.51
2019-04-03T07:57:53.500Z,15.58
2019-04-03T07:58:53.677Z,15.58
2019-04-03T07:59:53.490Z,15.71
2019-04-03T08:00:53.468Z,15.88
2019-04-03T08:01:53.460Z,15.88
2019-04-03T08:02:53.552Z,16.04
2019-04-03T08:03:53.507Z,16.18
2019-04-03T08:04:54.208Z,15.89
2019-04-03T08:05:55.910Z,15.67
2019-04-03T08:06:53.503Z,15.84
2019-04-03T08:07:53.393Z,15.85
2019-04-03T08:09:07.018Z,15.60
2019-04-03T08:09:57.349Z,15.68
2019-04-03T08:10:53.376Z,15.89
2019-04-03T08:11:53.351Z,15.93
2019-04-03T08:12:53.339Z,16.04
2019-04-03T08:13:53.394Z,16.25
2019-04-03T08:14:53.390Z,16.40
2019-04-03T08:15:53.410Z,16.48
2019-04-03T08:16:55.960Z,16.67
2019-04-03T08:17:53.753Z,16.80
2019-04-03T08:18:53.282Z,16.98
2019-04-03T08:19:54.383Z,16.91
2019-04-03T08:20:53.393Z,16.87
2019-04-03T08:21:53.289Z,16.91
2019-04-03T08:22:53.232Z,16.95
2019-04-03T08:23:53.223Z,16.88
2019-04-03T08:24:53.762Z,17.05
2019-04-03T08:25:54.245Z,17.14
2019-04-03T08:26:53.513Z,17.38
2019-04-03T08:27:55.630Z,17.51
2019-04-03T08:28:53.168Z,17.46
2019-04-03T08:29:53.157Z,17.57
2019-04-03T08:30:53.766Z,17.65
2019-04-03T08:31:53.145Z,17.80
2019-04-03T08:32:53.129Z,17.68
2019-04-03T08:33:53.122Z,17.77
2019-04-03T08:34:53.226Z,18.07
2019-04-03T08:35:53.101Z,18.28
2019-04-03T08:36:53.250Z,18.38
2019-04-03T08:37:53.443Z,18.36
2019-04-03T08:38:53.067Z,18.32
2019-04-03T08:39:53.284Z,18.42
2019-04-03T08:40:53.547Z,18.39
2019-04-03T08:41:55.306Z,18.54
2019-04-03T08:42:53.361Z,18.56
2019-04-03T08:43:53.012Z,18.76
2019-04-03T08:44:52.997Z,18.91
2019-04-03T08:45:52.997Z,19.15
2019-04-03T08:46:53.024Z,19.09
2019-04-03T08:47:52.974Z,18.96
2019-04-03T08:48:55.114Z,19.02
2019-04-03T08:49:52.943Z,19.01
2019-04-03T08:50:52.937Z,19.01
2019-04-03T08:51:52.921Z,18.99
2019-04-03T08:52:52.931Z,19.02
2019-04-03T08:53:54.764Z,19.30
2019-04-03T08:54:52.894Z,19.39
2019-04-03T08:55:54.127Z,19.46
2019-04-03T08:56:52.874Z,19.45
2019-04-03T08:57:53.297Z,19.68
2019-04-03T08:58:52.865Z,19.83
2019-04-03T08:59:53.106Z,19.76
2019-04-03T09:00:52.833Z,19.60
2019-04-03T09:01:55.133Z,19.75
2019-04-03T09:02:52.812Z,19.76
2019-04-03T09:03:53.215Z,19.58
2019-04-03T09:04:52.946Z,19.39
2019-04-03T09:05:55.653Z,19.42
2019-04-03T09:06:54.137Z,19.68
2019-04-03T09:07:55.294Z,19.87
2019-04-03T09:08:52.751Z,20.20
2019-04-03T09:09:52.735Z,20.19
2019-04-03T09:10:52.726Z,20.44
2019-04-03T09:11:52.708Z,20.41
2019-04-03T09:12:52.697Z,20.56
2019-04-03T09:13:54.818Z,20.56
2019-04-03T09:14:52.683Z,20.56
2019-04-03T09:15:52.670Z,20.34
2019-04-03T09:16:52.922Z,20.56
2019-04-03T09:17:52.652Z,20.16
2019-04-03T09:18:52.640Z,20.22
2019-04-03T09:19:52.971Z,20.46
2019-04-03T09:20:52.634Z,20.68
2019-04-03T09:21:52.611Z,20.76
2019-04-03T09:22:53.952Z,21.06
2019-04-03T09:23:52.585Z,21.27
2019-04-03T09:24:52.583Z,21.27
2019-04-03T09:25:52.574Z,20.97
2019-04-03T09:26:52.558Z,21.06
2019-04-03T09:27:52.541Z,20.76
2019-04-03T09:28:52.531Z,20.93
2019-04-03T09:29:52.826Z,21.00
2019-04-03T09:30:54.119Z,21.08
2019-04-03T09:31:55.877Z,21.27
2019-04-03T09:32:53.675Z,20.88
2019-04-03T09:33:52.518Z,20.88
2019-04-03T09:34:52.576Z,21.21
2019-04-03T09:35:52.523Z,21.28
2019-04-03T09:36:52.452Z,21.40
2019-04-03T09:37:52.438Z,21.37
2019-04-03T09:38:52.435Z,21.38
2019-04-03T09:39:52.667Z,21.73
2019-04-03T09:40:52.666Z,21.99
2019-04-03T09:41:52.403Z,21.98
2019-04-03T09:42:52.385Z,22.23
2019-04-03T09:43:54.507Z,22.29
2019-04-03T09:44:55.146Z,22.54
2019-04-03T09:45:52.357Z,22.66
2019-04-03T09:46:52.351Z,22.84
2019-04-03T09:47:52.345Z,22.59
2019-04-03T09:48:52.328Z,22.67
2019-04-03T09:49:52.316Z,22.84
2019-04-03T09:50:52.306Z,22.85
2019-04-03T09:51:53.140Z,22.82
2019-04-03T09:52:54.198Z,22.82
2019-04-03T09:53:52.503Z,22.75
2019-04-03T09:54:52.262Z,22.96
2019-04-03T09:55:52.460Z,22.94
2019-04-03T09:56:59.332Z,23.06
2019-04-03T09:57:53.412Z,22.89
2019-04-03T09:58:52.218Z,23.07
2019-04-03T09:59:52.559Z,23.22
2019-04-03T10:00:52.203Z,23.32
2019-04-03T10:01:52.432Z,23.39
2019-04-03T10:02:52.182Z,23.50
2019-04-03T10:03:55.084Z,23.56
2019-04-03T10:04:52.166Z,23.56
2019-04-03T10:05:52.147Z,23.75
2019-04-03T10:06:52.144Z,23.45
2019-04-03T10:07:52.129Z,23.64
2019-04-03T10:08:52.444Z,24.05
2019-04-03T10:09:53.929Z,24.37
2019-04-03T10:10:52.227Z,24.16
2019-04-03T10:11:52.646Z,24.09
2019-04-03T10:12:54.160Z,24.36
2019-04-03T10:13:52.067Z,24.44
2019-04-03T10:14:52.056Z,24.60
2019-04-03T10:15:52.047Z,24.60
2019-04-03T10:16:52.037Z,24.45
2019-04-03T10:17:52.032Z,24.60
2019-04-03T10:18:52.012Z,24.75
2019-04-03T10:19:52.345Z,24.77
2019-04-03T10:20:52.009Z,24.63
2019-04-03T10:21:53.414Z,24.59
2019-04-03T10:22:51.975Z,24.67
2019-04-03T10:23:52.075Z,24.79
2019-04-03T10:24:52.042Z,24.93
2019-04-03T10:25:53.529Z,25.04
2019-04-03T10:26:51.929Z,24.92
2019-04-03T10:27:52.170Z,24.63
2019-04-03T10:28:51.911Z,24.30
2019-04-03T10:29:51.918Z,23.90
2019-04-03T10:30:52.833Z,23.60
2019-04-03T10:31:54.789Z,23.75
2019-04-03T10:32:51.880Z,23.71
2019-04-03T10:33:51.942Z,23.96
2019-04-03T10:34:52.287Z,23.94
2019-04-03T10:35:51.838Z,23.64
2019-04-03T10:36:51.831Z,23.53
2019-04-03T10:37:51.944Z,23.50
2019-04-03T10:38:51.811Z,23.42
2019-04-03T10:39:52.769Z,23.49
2019-04-03T10:40:51.978Z,23.75
2019-04-03T10:41:51.780Z,23.60
2019-04-03T10:42:51.769Z,23.35
2019-04-03T10:43:51.755Z,23.29
2019-04-03T10:44:51.743Z,23.31
2019-04-03T10:45:51.764Z,23.39
2019-04-03T10:46:51.722Z,23.62
2019-04-03T10:47:51.721Z,23.71
2019-04-03T10:48:51.840Z,23.72
2019-04-03T10:49:51.700Z,23.78
2019-04-03T10:50:51.686Z,23.77
2019-04-03T10:51:51.779Z,23.37
2019-04-03T10:52:51.664Z,23.22
2019-04-03T10:53:52.521Z,23.50
2019-04-03T10:54:51.645Z,23.77
2019-04-03T10:55:51.701Z,23.89
2019-04-03T10:56:51.685Z,24.02
2019-04-03T10:57:51.622Z,23.89
2019-04-03T10:58:51.695Z,23.82
2019-04-03T10:59:54.513Z,23.90
2019-04-03T11:00:51.582Z,23.75
2019-04-03T11:01:51.621Z,23.75
2019-04-03T11:02:51.854Z,23.84
2019-04-03T11:03:51.546Z,23.74
2019-04-03T11:04:51.852Z,23.79
2019-04-03T11:05:51.724Z,23.75
2019-04-03T11:06:51.517Z,23.74
2019-04-03T11:07:51.541Z,23.77
2019-04-03T11:08:51.497Z,23.57
2019-04-03T11:09:51.488Z,23.54
2019-04-03T11:10:51.773Z,23.49
2019-04-03T11:11:51.750Z,23.67
2019-04-03T11:12:51.467Z,23.60
2019-04-03T11:13:51.458Z,23.59
2019-04-03T11:14:51.526Z,23.68
2019-04-03T11:15:51.419Z,23.86
2019-04-03T11:16:51.526Z,24.00
2019-04-03T11:17:51.506Z,24.29
2019-04-03T11:18:58.482Z,24.36
2019-04-03T11:19:52.395Z,24.66
2019-04-03T11:20:51.371Z,24.82
2019-04-03T11:21:51.355Z,25.07
2019-04-03T11:23:04.057Z,25.16
2019-04-03T11:23:52.595Z,25.61
2019-04-03T11:24:51.917Z,25.71
2019-04-03T11:25:51.539Z,25.82
2019-04-03T11:26:52.460Z,25.61
2019-04-03T11:27:51.704Z,25.29
2019-04-03T11:28:51.618Z,24.90
2019-04-03T11:29:51.666Z,24.83
2019-04-03T11:30:54.599Z,24.89
2019-04-03T11:31:51.265Z,25.20
2019-04-03T11:32:51.550Z,25.07
2019-04-03T11:33:51.548Z,25.17
2019-04-03T11:34:53.354Z,25.31
2019-04-03T11:35:53.681Z,25.31
2019-04-03T11:36:51.994Z,25.23
2019-04-03T11:37:51.196Z,25.02
2019-04-03T11:38:51.215Z,24.84
2019-04-03T11:40:01.347Z,24.67
2019-04-03T11:40:52.715Z,24.31
2019-04-03T11:41:51.387Z,23.78
2019-04-03T11:42:51.152Z,23.90
2019-04-03T11:43:51.134Z,23.69
2019-04-03T11:44:51.520Z,23.47
2019-04-03T11:45:51.108Z,23.52
2019-04-03T11:46:51.142Z,23.74
2019-04-03T11:47:51.261Z,24.12
2019-04-03T11:48:51.091Z,24.59
2019-04-03T11:49:52.355Z,24.56
2019-04-03T11:50:51.169Z,25.05
2019-04-03T11:51:51.049Z,25.30
2019-04-03T11:52:51.756Z,25.38
2019-04-03T11:53:51.150Z,25.49
2019-04-03T11:54:52.836Z,25.81
2019-04-03T11:55:51.013Z,26.09
2019-04-03T11:56:51.186Z,26.51
2019-04-03T11:57:50.997Z,26.23
2019-04-03T11:58:52.032Z,26.13
2019-04-03T11:59:51.207Z,25.69
2019-04-03T12:00:51.057Z,25.46
2019-04-03T12:01:51.195Z,25.30
2019-04-03T12:02:51.162Z,25.29
2019-04-03T12:03:51.619Z,25.63
2019-04-03T12:04:50.911Z,25.51
2019-04-03T12:05:50.899Z,25.01
2019-04-03T12:06:51.954Z,24.80
2019-04-03T12:07:51.235Z,24.56
2019-04-03T12:08:50.875Z,24.66
2019-04-03T12:09:51.061Z,24.63
2019-04-03T12:10:50.848Z,24.86
2019-04-03T12:11:50.848Z,25.51
2019-04-03T12:12:50.834Z,26.11
2019-04-03T12:13:50.835Z,26.36
2019-04-03T12:14:51.201Z,26.34
2019-04-03T12:15:53.196Z,26.50
2019-04-03T12:16:50.796Z,26.44
2019-04-03T12:17:51.073Z,26.31
2019-04-03T12:18:50.766Z,26.42
2019-04-03T12:19:50.936Z,26.32
2019-04-03T12:20:50.752Z,26.59
2019-04-03T12:21:51.261Z,26.66
2019-04-03T12:22:51.986Z,26.04
2019-04-03T12:23:50.777Z,25.56
2019-04-03T12:24:51.802Z,25.42
2019-04-03T12:25:50.709Z,25.19
2019-04-03T12:26:52.408Z,25.16
2019-04-03T12:27:50.684Z,25.14
2019-04-03T12:28:50.972Z,24.89
2019-04-03T12:29:53.867Z,24.75
2019-04-03T12:30:50.641Z,24.75
2019-04-03T12:31:50.641Z,24.67
2019-04-03T12:32:50.625Z,24.68
2019-04-03T12:33:56.314Z,24.83
2019-04-03T12:34:51.957Z,24.86
2019-04-03T12:35:50.592Z,24.61
2019-04-03T12:36:50.583Z,24.46
2019-04-03T12:37:51.207Z,24.29
2019-04-03T12:38:50.595Z,24.14
2019-04-03T12:39:50.549Z,24.00
2019-04-03T12:40:50.537Z,23.75
2019-04-03T12:41:50.527Z,23.60
2019-04-03T12:42:50.520Z,23.34
2019-04-03T12:43:50.813Z,23.12
2019-04-03T12:44:54.028Z,22.96
2019-04-03T12:45:50.490Z,22.84
2019-04-03T12:46:50.583Z,22.91
2019-04-03T12:47:50.468Z,22.88
2019-04-03T12:48:51.287Z,22.82
2019-04-03T12:49:53.378Z,22.70
2019-04-03T12:50:50.451Z,22.82
2019-04-03T12:51:50.429Z,22.81
2019-04-03T12:52:50.623Z,22.88
2019-04-03T12:53:50.401Z,23.00
2019-04-03T12:54:52.944Z,23.04
2019-04-03T12:55:50.381Z,23.01
2019-04-03T12:56:50.391Z,23.25
2019-04-03T12:57:50.496Z,23.42
2019-04-03T12:58:50.685Z,23.31